Time;durP1;ratioP1;P1;durP2;ratioP2;P2;SDS_P1;SDS_P2;PMS_P1;PMS_P2;Temp;Humidity;BMP_temperature;BMP_pressure;BME280_temperature;BME280_humidity;BME280_pressure;Samples;Min_cycle;Max_cycle;Signal;HPM_P1;HPM_P2
2021/11/10 00:00:48;;;;;;;881.67;794.80;;;2.10;99.90;;;;;;5015473;28;20453;-82
2021/11/10 00:03:15;;;;;;;879.17;792.27;;;2.10;99.90;;;;;;5009813;28;20605;-82
2021/11/10 00:05:44;;;;;;;881.23;793.90;;;2.10;99.90;;;;;;4994675;28;20490;-82
2021/11/10 00:08:12;;;;;;;887.70;800.10;;;2.00;99.90;;;;;;4995732;28;20462;-81
2021/11/10 00:10:41;;;;;;;897.97;809.77;;;1.90;99.90;;;;;;4995399;28;20504;-82
2021/11/10 00:13:20;;;;;;;887.27;799.37;;;1.90;99.90;;;;;;4995817;28;20512;-82
2021/11/10 00:15:48;;;;;;;890.63;802.73;;;2.00;99.90;;;;;;4995703;28;20477;-82
2021/11/10 00:18:17;;;;;;;874.63;788.43;;;1.90;99.90;;;;;;4995747;28;20486;-82
2021/11/10 00:20:45;;;;;;;877.57;790.10;;;1.80;99.90;;;;;;4994133;28;20558;-82
2021/11/10 00:23:14;;;;;;;881.53;793.10;;;1.90;99.90;;;;;;4995463;28;20968;-83
2021/11/10 00:25:42;;;;;;;886.47;798.67;;;1.90;99.90;;;;;;4995533;28;20465;-83
2021/11/10 00:28:09;;;;;;;890.50;802.60;;;2.00;99.90;;;;;;4995359;28;20466;-83
2021/11/10 00:30:36;;;;;;;879.33;790.23;;;2.20;99.90;;;;;;4995536;28;20468;-82
2021/11/10 00:33:03;;;;;;;878.00;789.80;;;2.20;99.90;;;;;;4995150;28;20505;-82
2021/11/10 00:35:30;;;;;;;873.80;786.33;;;2.30;99.90;;;;;;4994020;28;20458;-82
2021/11/10 00:37:59;;;;;;;880.10;793.50;;;2.30;99.90;;;;;;4995368;28;20474;-82
2021/11/10 00:40:27;;;;;;;880.23;794.27;;;2.40;99.90;;;;;;4995280;28;20934;-82
2021/11/10 00:42:54;;;;;;;887.40;799.60;;;2.30;99.90;;;;;;4995152;28;20558;-83
2021/11/10 00:45:23;;;;;;;891.30;803.40;;;2.30;99.90;;;;;;4995154;28;20836;-82
2021/11/10 00:47:50;;;;;;;885.83;798.80;;;2.30;99.90;;;;;;4994975;28;20494;-82
2021/11/10 00:50:17;;;;;;;860.30;773.30;;;2.30;99.90;;;;;;4993721;28;20974;-82
2021/11/10 00:52:46;;;;;;;870.97;785.17;;;2.30;99.90;;;;;;4995026;28;20454;-82
2021/11/10 00:55:13;;;;;;;868.70;782.17;;;2.20;99.90;;;;;;4995135;28;20521;-82
2021/11/10 00:57:41;;;;;;;858.73;772.47;;;2.20;99.90;;;;;;4994672;28;20619;-82
2021/11/10 01:00:10;;;;;;;866.43;780.80;;;2.10;99.90;;;;;;4994791;28;20450;-82
2021/11/10 01:02:37;;;;;;;872.70;786.70;;;2.00;99.90;;;;;;4994860;28;20484;-82
2021/11/10 01:05:04;;;;;;;871.93;785.30;;;1.90;99.90;;;;;;4993469;28;20494;-82
2021/11/10 01:07:33;;;;;;;871.00;785.20;;;1.90;99.90;;;;;;4994672;28;20553;-82
2021/11/10 01:10:01;;;;;;;873.70;787.97;;;1.90;99.90;;;;;;4994783;28;20493;-83
2021/11/10 01:12:31;;;;;;;862.93;778.17;;;1.80;99.90;;;;;;4994636;28;20450;-82
2021/11/10 01:15:03;;;;;;;884.70;798.13;;;1.60;99.90;;;;;;4994310;28;20501;-82
2021/11/10 01:17:30;;;;;;;906.13;817.30;;;1.50;99.90;;;;;;4994598;28;20461;-82
2021/11/10 01:19:57;;;;;;;904.33;815.73;;;1.60;99.90;;;;;;4993218;28;20490;-82
2021/11/10 01:22:24;;;;;;;898.77;809.50;;;1.60;99.90;;;;;;4993552;28;20580;-82
2021/11/10 01:24:52;;;;;;;904.33;814.20;;;1.70;99.90;;;;;;4994322;28;20488;-82
2021/11/10 01:27:19;;;;;;;897.57;809.37;;;1.70;99.90;;;;;;4994244;28;20473;-82
2021/11/10 01:29:46;;;;;;;894.77;806.90;;;1.60;99.90;;;;;;4994323;28;20450;-82
2021/11/10 01:32:15;;;;;;;908.13;819.53;;;1.80;99.90;;;;;;4994274;28;20454;-82
2021/11/10 01:34:41;;;;;;;911.50;822.60;;;1.90;99.90;;;;;;4993218;28;20599;-82
2021/11/10 01:37:10;;;;;;;915.03;825.90;;;2.00;99.90;;;;;;4994347;28;20454;-82
2021/11/10 01:39:37;;;;;;;918.58;828.58;;;2.10;99.90;;;;;;4994005;28;20841;-82
2021/11/10 01:42:06;;;;;;;919.90;830.80;;;2.10;99.90;;;;;;4994117;28;20609;-82
2021/11/10 01:44:36;;;;;;;916.50;826.20;;;2.10;99.90;;;;;;4975818;28;20450;-82
2021/11/10 01:47:07;;;;;;;916.67;827.50;;;2.00;99.90;;;;;;4993905;28;20541;-82
2021/11/10 01:49:35;;;;;;;929.37;840.03;;;1.90;99.90;;;;;;4993149;28;20454;-81
2021/11/10 01:52:06;;;;;;;923.87;833.93;;;1.80;99.90;;;;;;4993981;28;20501;-82
2021/11/10 01:54:35;;;;;;;929.33;839.50;;;1.60;99.90;;;;;;4993827;28;20590;-83
2021/11/10 01:57:03;;;;;;;935.57;845.60;;;1.60;99.90;;;;;;4993844;28;20633;-83
2021/11/10 01:59:33;;;;;;;932.53;842.43;;;1.50;99.90;;;;;;4993579;28;20568;-82
2021/11/10 02:02:02;;;;;;;963.70;870.50;;;1.40;99.90;;;;;;4993729;28;20958;-83
2021/11/10 02:04:31;;;;;;;953.30;861.30;;;1.50;99.90;;;;;;4993739;28;20997;-82
2021/11/10 02:07:01;;;;;;;958.67;866.00;;;1.60;99.90;;;;;;4992622;28;20969;-82
2021/11/10 02:09:28;;;;;;;966.20;872.90;;;1.60;99.90;;;;;;5005539;28;20461;-82
2021/11/10 02:11:57;;;;;;;974.63;882.47;;;1.60;99.90;;;;;;4993713;28;20520;-82
2021/11/10 02:14:28;;;;;;;959.33;866.87;;;1.60;99.90;;;;;;4993536;28;20506;-82
2021/11/10 02:16:56;;;;;;;976.80;883.67;;;1.70;99.90;;;;;;4993512;28;20462;-82
2021/11/10 02:19:24;;;;;;;967.03;874.53;;;1.60;99.90;;;;;;4993438;28;20490;-82
2021/11/10 02:21:55;;;;;;;958.60;866.23;;;1.70;99.90;;;;;;4992149;28;20458;-82
2021/11/10 02:24:25;;;;;;;966.53;873.10;;;1.80;99.90;;;;;;4993703;28;20450;-82
2021/11/10 02:26:52;;;;;;;979.13;885.58;;;1.90;99.90;;;;;;4993409;28;20454;-82
2021/11/10 02:29:22;;;;;;;976.33;881.97;;;1.70;99.90;;;;;;4993462;28;20205;-82
2021/11/10 02:31:50;;;;;;;986.47;892.80;;;1.80;99.90;;;;;;4993379;28;20981;-82
2021/11/10 02:34:18;;;;;;;987.90;894.67;;;1.70;99.90;;;;;;4999667;28;20458;-82
2021/11/10 02:36:45;;;;;;;985.77;892.67;;;1.70;99.90;;;;;;4998567;28;20512;-82
2021/11/10 02:39:16;;;;;;;989.07;895.70;;;1.80;99.90;;;;;;4999826;28;20492;-82
2021/11/10 02:41:46;;;;;;;981.67;887.27;;;1.80;99.90;;;;;;4999776;28;20500;-82
2021/11/10 02:44:16;;;;;;;991.13;895.93;;;1.80;99.90;;;;;;4999857;28;20458;-83
2021/11/10 02:46:43;;;;;;;993.60;899.60;;;1.80;99.90;;;;;;4999817;28;20828;-83
2021/11/10 02:49:11;;;;;;;984.57;890.07;;;1.80;99.90;;;;;;4999841;28;20453;-82
2021/11/10 02:51:55;;;;;;;993.87;899.70;;;1.80;99.90;;;;;;4998692;28;20458;-82
2021/11/10 02:54:24;;;;;;;998.53;905.43;;;1.70;99.90;;;;;;4999601;28;20515;-82
2021/11/10 02:56:53;;;;;;;988.00;895.30;;;1.70;99.90;;;;;;4999941;28;20516;-82
2021/11/10 02:59:20;;;;;;;992.57;898.60;;;1.60;99.90;;;;;;4999549;28;20517;-82
2021/11/10 03:01:48;;;;;;;992.27;898.37;;;1.70;99.90;;;;;;4999628;28;20945;-82
2021/11/10 03:04:25;;;;;;;978.57;886.00;;;1.70;99.90;;;;;;4999779;28;20461;-82
2021/11/10 03:06:52;;;;;;;966.60;874.40;;;1.70;99.90;;;;;;4998436;28;20454;-82
2021/11/10 03:09:36;;;;;;;988.93;895.23;;;1.80;99.90;;;;;;4999735;28;20493;-82
2021/11/10 03:12:20;;;;;;;961.90;868.80;;;1.90;99.90;;;;;;4999610;28;20462;-82
2021/11/10 03:14:52;;;;;;;957.10;864.80;;;1.90;99.90;;;;;;4999610;28;20533;-82
2021/11/10 03:17:20;;;;;;;950.33;858.47;;;1.80;99.90;;;;;;4999625;28;20873;-82
2021/11/10 03:19:49;;;;;;;955.63;863.87;;;1.70;99.90;;;;;;4998344;28;21005;-82
2021/11/10 03:22:17;;;;;;;950.93;859.63;;;1.60;99.90;;;;;;4999316;28;20462;-82
2021/11/10 03:24:49;;;;;;;948.80;857.60;;;1.40;99.90;;;;;;4999444;28;20503;-82
2021/11/10 03:27:21;;;;;;;964.40;872.40;;;1.30;99.90;;;;;;4999771;28;20466;-82
2021/11/10 03:29:51;;;;;;;962.13;870.03;;;1.30;99.90;;;;;;4999509;28;20954;-82
2021/11/10 03:32:19;;;;;;;969.33;876.80;;;1.10;99.90;;;;;;4999582;28;20493;-82
2021/11/10 03:34:48;;;;;;;971.80;878.83;;;1.10;99.90;;;;;;4998139;28;20464;-82
2021/11/10 03:37:16;;;;;;;967.43;875.17;;;1.00;99.90;;;;;;4999541;28;20454;-82
2021/11/10 03:39:44;;;;;;;954.00;862.17;;;0.90;99.90;;;;;;4999330;28;20510;-82
2021/11/10 03:42:13;;;;;;;956.00;864.73;;;0.80;99.90;;;;;;4999292;28;20497;-82
2021/11/10 03:44:40;;;;;;;952.13;860.77;;;0.80;99.90;;;;;;4996803;28;20500;-82
2021/11/10 03:47:07;;;;;;;953.03;862.57;;;0.80;99.90;;;;;;4996082;28;20465;-82
2021/11/10 03:49:34;;;;;;;961.67;869.95;;;0.70;99.90;;;;;;4995788;28;20493;-82
2021/11/10 03:52:01;;;;;;;962.73;871.20;;;0.60;99.90;;;;;;4995705;28;20199;-82
2021/11/10 03:54:28;;;;;;;961.73;869.90;;;0.50;99.90;;;;;;5001200;28;20460;-82
2021/11/10 03:56:56;;;;;;;964.97;872.93;;;0.70;99.90;;;;;;5005641;28;20465;-82
2021/11/10 03:59:25;;;;;;;980.17;887.05;;;0.60;99.90;;;;;;4995778;28;20489;-81
2021/11/10 04:01:52;;;;;;;977.83;884.92;;;0.60;99.90;;;;;;4995717;28;20655;-79
2021/11/10 04:04:21;;;;;;;979.40;886.17;;;0.40;99.90;;;;;;5010202;28;20642;-82
2021/11/10 04:06:48;;;;;;;980.90;888.03;;;0.60;99.90;;;;;;5014463;28;20461;-81
2021/11/10 04:09:17;;;;;;;982.80;889.50;;;0.50;99.90;;;;;;5013508;28;20471;-82
2021/11/10 04:11:47;;;;;;;991.57;898.10;;;0.50;99.90;;;;;;5015297;28;20458;-83
2021/11/10 04:14:19;;;;;;;995.93;902.13;;;0.70;99.90;;;;;;5015079;28;21004;-82
2021/11/10 04:16:46;;;;;;;1008.20;912.80;;;0.70;99.90;;;;;;5015305;28;20500;-83
2021/11/10 04:22:03;;;;;;;1023.77;929.20;;;0.80;99.90;;;;;;4987820;28;20449;-81
2021/11/10 04:24:33;;;;;;;1023.40;928.50;;;0.70;99.90;;;;;;5005919;28;20511;-82
2021/11/10 04:27:00;;;;;;;1021.80;928.13;;;0.80;99.90;;;;;;5014949;28;20523;-82
2021/11/10 04:29:31;;;;;;;1030.80;935.73;;;0.90;99.90;;;;;;5014869;28;20540;-82
2021/11/10 04:31:58;;;;;;;1028.78;934.25;;;1.00;99.90;;;;;;5014896;28;20953;-82
2021/11/10 04:34:27;;;;;;;1025.70;929.30;;;0.90;99.90;;;;;;5014870;28;20253;-81
2021/11/10 04:36:54;;;;;;;1023.83;928.33;;;0.80;99.90;;;;;;5013937;28;20206;-81
2021/11/10 04:39:20;;;;;;;1015.17;919.50;;;0.80;99.90;;;;;;5014611;28;20692;-81
2021/11/10 04:41:47;;;;;;;1016.37;921.70;;;0.70;99.90;;;;;;5014818;28;20249;-81
2021/11/10 04:46:57;;;;;;;1017.07;923.30;;;0.60;99.90;;;;;;5011665;28;20654;-82
2021/11/10 04:49:28;;;;;;;1030.97;937.08;;;0.40;99.90;;;;;;5014694;28;20885;-82
2021/11/10 04:51:57;;;;;;;1025.73;931.67;;;0.40;99.90;;;;;;5013213;28;20727;-82
2021/11/10 04:54:29;;;;;;;1033.17;938.60;;;0.20;99.90;;;;;;5014886;28;20469;-82
2021/11/10 04:56:56;;;;;;;1011.00;917.00;;;0.30;99.90;;;;;;5013397;28;20457;-81
2021/11/10 04:59:31;;;;;;;1015.67;920.80;;;0.20;99.90;;;;;;5012464;28;20535;-82
2021/11/10 05:08:06;;;;;;;972.60;883.40;;;0.30;99.90;;;;;;4986345;28;20458;-82
2021/11/10 05:10:41;;;;;;;958.90;871.80;;;0.20;99.90;;;;;;5003180;28;21053;-83
2021/11/10 05:13:21;;;;;;;970.40;883.47;;;0.10;99.90;;;;;;5014352;28;20983;-82
2021/11/10 05:15:50;;;;;;;980.50;894.07;;;0.10;99.90;;;;;;5014397;28;20515;-83
2021/11/10 05:18:18;;;;;;;999.17;911.40;;;0.20;99.90;;;;;;5013993;28;20457;-83
2021/11/10 05:20:49;;;;;;;1008.20;918.43;;;0.20;99.90;;;;;;5012915;28;20576;-83
2021/11/10 05:23:16;;;;;;;1025.57;934.60;;;0.30;99.90;;;;;;5013998;28;20880;-83
2021/11/10 05:25:45;;;;;;;1024.80;934.30;;;0.30;99.90;;;;;;5014157;28;20479;-82
2021/11/10 05:28:12;;;;;;;1036.60;944.80;;;0.20;99.90;;;;;;5013845;28;20484;-81
2021/11/10 05:30:51;;;;;;;1037.25;947.13;;;0.30;99.90;;;;;;5013865;28;20549;-83
2021/11/10 05:33:22;;;;;;;1037.47;946.77;;;0.30;99.90;;;;;;5014231;28;20629;-82
2021/11/10 05:35:50;;;;;;;1046.43;955.10;;;0.20;99.90;;;;;;5012575;28;20456;-83
2021/11/10 05:38:17;;;;;;;1043.93;954.28;;;0.30;99.90;;;;;;5013788;28;20221;-82
2021/11/10 05:40:45;;;;;;;1035.83;946.57;;;0.30;99.90;;;;;;5013652;28;20292;-82
2021/11/10 05:43:12;;;;;;;1053.07;962.47;;;0.10;99.90;;;;;;5013851;28;20895;-82
2021/11/10 05:45:39;;;;;;;1054.80;964.80;;;0.00;99.90;;;;;;5013916;28;20307;-81
2021/11/10 05:48:06;;;;;;;1051.97;964.10;;;0.10;99.90;;;;;;5013639;28;20454;-80
2021/11/10 05:50:35;;;;;;;1040.20;953.28;;;0.00;99.90;;;;;;5012344;28;20191;-82
2021/11/10 05:53:01;;;;;;;1044.30;957.50;;;-0.10;99.90;;;;;;5013702;28;20286;-82
2021/11/10 05:55:29;;;;;;;1027.95;943.33;;;-0.20;99.90;;;;;;5013558;28;20457;-82
2021/11/10 05:58:03;;;;;;;1042.80;956.05;;;-0.30;99.90;;;;;;5013140;28;20232;-82
2021/11/10 06:00:32;;;;;;;1049.90;962.45;;;-0.30;99.90;;;;;;5013141;28;20763;-82
2021/11/10 06:03:00;;;;;;;1053.95;965.25;;;-0.20;99.90;;;;;;5013206;28;20197;-82
2021/11/10 06:05:31;;;;;;;1061.70;974.05;;;-0.30;99.90;;;;;;5011194;28;20623;-81
2021/11/10 06:08:08;;;;;;;1034.83;948.83;;;-0.30;99.90;;;;;;4993326;28;20562;-82
2021/11/10 06:10:35;;;;;;;1048.63;961.97;;;-0.30;99.90;;;;;;4994223;28;20456;-81
2021/11/10 06:13:03;;;;;;;1046.97;960.53;;;-0.40;99.90;;;;;;5013005;28;20477;-83
2021/11/10 06:15:30;;;;;;;1037.05;950.30;;;-0.40;99.90;;;;;;4978448;28;20230;-83
2021/11/10 06:17:57;;;;;;;1038.07;951.70;;;-0.30;99.90;;;;;;5013196;28;20749;-82
2021/11/10 06:20:26;;;;;;;1048.63;962.38;;;-0.40;99.90;;;;;;5011868;28;20225;-83
2021/11/10 06:22:54;;;;;;;1047.53;961.50;;;-0.40;99.90;;;;;;5013343;28;20194;-83
2021/11/10 06:25:23;;;;;;;1048.53;961.72;;;-0.40;99.90;;;;;;5013069;28;20461;-83
2021/11/10 06:27:50;;;;;;;1048.70;962.47;;;-0.20;99.90;;;;;;5012860;28;20260;-83
2021/11/10 06:30:17;;;;;;;1061.03;974.80;;;-0.30;99.90;;;;;;5013148;28;20277;-81
2021/11/10 06:32:45;;;;;;;1053.43;966.75;;;-0.20;99.90;;;;;;5013025;28;20202;-82
2021/11/10 06:35:13;;;;;;;1049.03;960.92;;;-0.40;99.90;;;;;;5011851;28;20194;-81
2021/11/10 06:37:40;;;;;;;1060.25;972.17;;;-0.30;99.90;;;;;;5012850;28;20280;-82
2021/11/10 06:43:47;;;;;;;1050.97;961.87;;;-0.20;99.90;;;;;;4913930;29;20710;-83
2021/11/10 06:46:17;;;;;;;1039.90;952.38;;;-0.10;99.90;;;;;;4914303;29;20514;-83
2021/11/10 06:48:47;;;;;;;1052.15;962.85;;;-0.10;99.90;;;;;;4934835;28;20241;-81
2021/11/10 06:51:15;;;;;;;1051.82;962.95;;;-0.10;99.90;;;;;;5011458;28;20199;-81
2021/11/10 06:53:44;;;;;;;1052.88;965.47;;;0.00;99.90;;;;;;4993874;28;20197;-82
2021/11/10 06:56:26;;;;;;;1062.70;974.08;;;-0.10;99.90;;;;;;4993181;28;20877;-82
2021/11/10 06:59:12;;;;;;;1057.85;971.72;;;-0.20;99.90;;;;;;4993143;28;20219;-82
2021/11/10 07:01:49;;;;;;;1056.40;969.03;;;-0.30;99.90;;;;;;4992276;28;20227;-83
2021/11/10 07:04:22;;;;;;;1058.03;971.10;;;-0.20;99.90;;;;;;5006672;28;20445;-82
2021/11/10 07:06:51;;;;;;;1058.53;969.47;;;-0.20;99.90;;;;;;4992437;28;20195;-82
2021/11/10 07:09:18;;;;;;;1040.87;953.90;;;-0.10;99.90;;;;;;4993924;28;20200;-84
2021/11/10 07:11:51;;;;;;;1053.18;963.83;;;0.00;99.90;;;;;;4992866;28;20493;-84
2021/11/10 07:14:20;;;;;;;1049.60;960.58;;;0.00;99.90;;;;;;4992856;28;20212;-84
2021/11/10 07:16:47;;;;;;;1059.75;968.75;;;-0.10;99.90;;;;;;4993299;28;20202;-83
2021/11/10 07:19:14;;;;;;;1057.95;967.05;;;0.30;99.90;;;;;;4993453;28;20650;-83
2021/11/10 07:21:46;;;;;;;1070.50;979.55;;;0.40;99.90;;;;;;4995584;28;20227;-82
2021/11/10 07:24:19;;;;;;;1072.47;981.20;;;0.50;99.90;;;;;;4996521;28;20206;-82
2021/11/10 07:26:48;;;;;;;1085.23;993.90;;;0.60;99.90;;;;;;4996833;28;20451;-83
2021/11/10 07:29:19;;;;;;;1077.97;986.20;;;0.70;99.90;;;;;;4996460;28;20460;-83
2021/11/10 07:31:46;;;;;;;1058.45;967.30;;;0.70;99.90;;;;;;4996556;28;20198;-83
2021/11/10 07:34:15;;;;;;;1051.60;960.30;;;0.70;99.90;;;;;;4996443;28;20689;-83
2021/11/10 07:36:42;;;;;;;1046.90;955.33;;;0.80;99.90;;;;;;4995114;28;20465;-83
2021/11/10 07:39:10;;;;;;;1031.63;939.53;;;1.00;99.90;;;;;;4996483;28;20528;-82
2021/11/10 07:41:37;;;;;;;1039.10;946.83;;;0.90;99.90;;;;;;4996106;28;20390;-83
2021/11/10 07:44:10;;;;;;;1035.07;942.92;;;0.90;99.90;;;;;;4996575;28;20462;-83
2021/11/10 07:46:37;;;;;;;1030.00;937.47;;;1.00;99.90;;;;;;4996221;28;20206;-82
2021/11/10 07:49:05;;;;;;;1031.13;936.80;;;1.00;99.90;;;;;;4996233;28;20516;-83
2021/11/10 07:51:41;;;;;;;1019.43;923.87;;;1.10;99.90;;;;;;4995406;28;20529;-84
2021/11/10 07:54:08;;;;;;;1006.03;911.05;;;1.10;99.90;;;;;;4996257;28;20489;-82
2021/11/10 07:56:37;;;;;;;998.77;904.67;;;1.10;99.90;;;;;;4996033;28;20728;-83
2021/11/10 07:59:30;;;;;;;995.63;901.07;;;1.20;99.90;;;;;;4995906;28;20484;-83
2021/11/10 08:01:59;;;;;;;962.33;868.07;;;1.20;99.90;;;;;;4990809;28;20486;-82
2021/11/10 08:04:26;;;;;;;966.38;872.50;;;1.40;99.90;;;;;;5011042;28;20449;-80
2021/11/10 08:08:02;;;;;;;;;;;;;;;;;;;;;
2021/11/10 08:13:53;;;;;;;961.23;866.50;;;1.70;99.90;;;;;;4981452;28;20477;-83
2021/11/10 08:16:35;;;;;;;955.57;861.57;;;1.90;99.90;;;;;;5015073;28;20458;-83
2021/11/10 08:19:03;;;;;;;970.40;871.97;;;2.00;99.90;;;;;;5013921;28;20954;-82
2021/11/10 08:21:46;;;;;;;;;;;;;;;;;;;;;
2021/11/10 08:24:53;;;;;;;;;;;;;;;;;;;;;
2021/11/10 08:27:45;;;;;;;953.73;860.77;;;2.60;99.90;;;;;;4922351;28;20555;-83
2021/11/10 09:52:10;;;;;;;469.00;448.07;;;8.10;98.90;;;;;;5358665;22;20479;-85
2021/11/10 10:25:43;;;;;;;18.03;13.27;;;11.00;69.80;;;;;;4808835;29;20596;-86
2021/11/10 10:28:28;;;;;;;26.10;17.63;;;11.30;59.70;;;;;;4858561;29;20540;-85
2021/11/10 10:32:04;;;;;;;;;;;;;;;;;;;;;
2021/11/10 10:34:49;;;;;;;17.70;12.90;;;11.60;62.40;;;;;;4795487;29;20538;-84
2021/11/10 10:38:08;;;;;;;19.17;12.90;;;11.60;62.50;;;;;;4837825;29;20555;-85
2021/11/10 11:03:35;;;;;;;40.00;34.20;;;11.20;63.30;;;;;;4819091;29;20450;-86
2021/11/10 11:26:01;;;;;;;;;;;;;;;;;;;;;
2021/11/10 13:12:02;;;;;;;25.83;15.43;;;11.20;47.70;;;;;;5322958;22;20891;-85
2021/11/10 13:57:58;;;;;;;25.30;16.10;;;10.30;60.70;;;;;;4887243;29;20997;-85
2021/11/10 17:14:14;;;;;;;859.53;789.83;;;2.90;99.90;;;;;;4748937;30;21008;-83
2021/11/10 17:39:49;;;;;;;863.70;787.90;;;2.50;99.90;;;;;;4892565;29;20931;-86
2021/11/10 18:45:18;;;;;;;928.17;840.40;;;1.70;99.90;;;;;;4899904;29;20208;-85
2021/11/10 21:16:38;;;;;;;1070.53;975.50;;;0.60;99.90;;;;;;4803809;29;20216;-86
2021/11/10 21:23:11;;;;;;;1067.70;969.45;;;0.70;99.90;;;;;;4796792;29;20679;-87
